sensor_id;sensor_type;location;lat;lon;timestamp;P1;durP1;ratioP1;P2;durP2;ratioP2
20531;SDS011;10424;52.102;8.084;2022-09-09T00:00:12;5.03;;;2.22;;
20531;SDS011;10424;52.102;8.084;2022-09-09T00:02:39;4.38;;;2.17;;
20531;SDS011;10424;52.102;8.084;2022-09-09T00:05:12;7.32;;;2.28;;
20531;SDS011;10424;52.102;8.084;2022-09-09T00:07:42;4.32;;;2.22;;
20531;SDS011;10424;52.102;8.084;2022-09-09T00:10:14;3.72;;;2.40;;
20531;SDS011;10424;52.102;8.084;2022-09-09T00:12:46;4.72;;;2.33;;
20531;SDS011;10424;52.102;8.084;2022-09-09T00:15:17;4.78;;;2.33;;
20531;SDS011;10424;52.102;8.084;2022-09-09T00:17:46;4.72;;;2.53;;
20531;SDS011;10424;52.102;8.084;2022-09-09T00:20:16;3.50;;;2.50;;
20531;SDS011;10424;52.102;8.084;2022-09-09T00:22:51;4.57;;;2.63;;
20531;SDS011;10424;52.102;8.084;2022-09-09T00:25:24;5.38;;;2.80;;
20531;SDS011;10424;52.102;8.084;2022-09-09T00:27:54;6.22;;;2.60;;
20531;SDS011;10424;52.102;8.084;2022-09-09T00:30:23;3.60;;;2.50;;
20531;SDS011;10424;52.102;8.084;2022-09-09T00:32:53;4.03;;;2.58;;
20531;SDS011;10424;52.102;8.084;2022-09-09T00:35:24;5.53;;;2.83;;
20531;SDS011;10424;52.102;8.084;2022-09-09T00:37:53;4.47;;;2.35;;
20531;SDS011;10424;52.102;8.084;2022-09-09T00:40:25;3.60;;;2.50;;
20531;SDS011;10424;52.102;8.084;2022-09-09T00:42:58;4.82;;;2.53;;
20531;SDS011;10424;52.102;8.084;2022-09-09T00:45:37;6.25;;;2.28;;
20531;SDS011;10424;52.102;8.084;2022-09-09T00:48:08;4.68;;;2.13;;
20531;SDS011;10424;52.102;8.084;2022-09-09T00:50:40;5.35;;;2.20;;
20531;SDS011;10424;52.102;8.084;2022-09-09T00:53:23;5.78;;;2.35;;
20531;SDS011;10424;52.102;8.084;2022-09-09T00:55:57;4.35;;;2.40;;
20531;SDS011;10424;52.102;8.084;2022-09-09T00:58:31;3.65;;;2.22;;
20531;SDS011;10424;52.102;8.084;2022-09-09T01:01:00;5.97;;;2.63;;
20531;SDS011;10424;52.102;8.084;2022-09-09T01:03:34;3.60;;;2.00;;
20531;SDS011;10424;52.102;8.084;2022-09-09T01:06:02;6.70;;;2.58;;
20531;SDS011;10424;52.102;8.084;2022-09-09T01:08:37;5.68;;;2.50;;
20531;SDS011;10424;52.102;8.084;2022-09-09T01:11:07;4.97;;;2.10;;
20531;SDS011;10424;52.102;8.084;2022-09-09T01:13:38;3.45;;;2.17;;
20531;SDS011;10424;52.102;8.084;2022-09-09T01:16:10;3.40;;;1.90;;
20531;SDS011;10424;52.102;8.084;2022-09-09T01:18:39;4.70;;;2.05;;
20531;SDS011;10424;52.102;8.084;2022-09-09T01:21:09;4.72;;;2.10;;
20531;SDS011;10424;52.102;8.084;2022-09-09T01:23:45;4.30;;;2.30;;
20531;SDS011;10424;52.102;8.084;2022-09-09T01:26:24;8.73;;;2.60;;
20531;SDS011;10424;52.102;8.084;2022-09-09T01:28:52;7.47;;;2.08;;
20531;SDS011;10424;52.102;8.084;2022-09-09T01:31:21;4.80;;;1.90;;
20531;SDS011;10424;52.102;8.084;2022-09-09T01:33:49;5.50;;;2.10;;
20531;SDS011;10424;52.102;8.084;2022-09-09T01:36:22;5.82;;;2.00;;
20531;SDS011;10424;52.102;8.084;2022-09-09T01:38:51;7.18;;;2.20;;
20531;SDS011;10424;52.102;8.084;2022-09-09T01:41:18;4.72;;;2.15;;
20531;SDS011;10424;52.102;8.084;2022-09-09T01:43:47;3.25;;;1.88;;
20531;SDS011;10424;52.102;8.084;2022-09-09T01:46:15;3.45;;;2.00;;
20531;SDS011;10424;52.102;8.084;2022-09-09T01:48:43;3.25;;;1.98;;
20531;SDS011;10424;52.102;8.084;2022-09-09T01:51:10;3.97;;;2.08;;
20531;SDS011;10424;52.102;8.084;2022-09-09T01:53:38;4.82;;;2.20;;
20531;SDS011;10424;52.102;8.084;2022-09-09T01:56:09;4.75;;;2.25;;
20531;SDS011;10424;52.102;8.084;2022-09-09T01:58:42;3.42;;;2.28;;
20531;SDS011;10424;52.102;8.084;2022-09-09T02:01:15;6.00;;;2.30;;
20531;SDS011;10424;52.102;8.084;2022-09-09T02:03:46;4.70;;;2.13;;
20531;SDS011;10424;52.102;8.084;2022-09-09T02:06:16;5.45;;;2.40;;
20531;SDS011;10424;52.102;8.084;2022-09-09T02:08:48;4.65;;;2.20;;
20531;SDS011;10424;52.102;8.084;2022-09-09T02:11:16;9.50;;;2.30;;
20531;SDS011;10424;52.102;8.084;2022-09-09T02:13:44;4.65;;;2.30;;
20531;SDS011;10424;52.102;8.084;2022-09-09T02:16:14;3.22;;;2.08;;
20531;SDS011;10424;52.102;8.084;2022-09-09T02:18:46;3.33;;;2.00;;
20531;SDS011;10424;52.102;8.084;2022-09-09T02:21:14;6.25;;;2.33;;
20531;SDS011;10424;52.102;8.084;2022-09-09T02:23:43;5.47;;;2.20;;
20531;SDS011;10424;52.102;8.084;2022-09-09T02:26:12;3.50;;;2.15;;
20531;SDS011;10424;52.102;8.084;2022-09-09T02:28:44;2.80;;;1.90;;
20531;SDS011;10424;52.102;8.084;2022-09-09T02:31:14;2.45;;;1.65;;
20531;SDS011;10424;52.102;8.084;2022-09-09T02:33:42;2.80;;;1.90;;
20531;SDS011;10424;52.102;8.084;2022-09-09T02:36:11;5.20;;;1.95;;
20531;SDS011;10424;52.102;8.084;2022-09-09T02:38:42;3.60;;;1.92;;
20531;SDS011;10424;52.102;8.084;2022-09-09T02:41:10;2.75;;;1.98;;
20531;SDS011;10424;52.102;8.084;2022-09-09T02:43:38;3.67;;;2.10;;
20531;SDS011;10424;52.102;8.084;2022-09-09T02:46:08;3.72;;;2.03;;
20531;SDS011;10424;52.102;8.084;2022-09-09T02:48:40;3.08;;;2.00;;
20531;SDS011;10424;52.102;8.084;2022-09-09T02:51:14;3.50;;;2.20;;
20531;SDS011;10424;52.102;8.084;2022-09-09T02:53:45;4.32;;;2.00;;
20531;SDS011;10424;52.102;8.084;2022-09-09T02:56:15;3.35;;;2.28;;
20531;SDS011;10424;52.102;8.084;2022-09-09T02:58:43;3.97;;;2.10;;
20531;SDS011;10424;52.102;8.084;2022-09-09T03:01:11;2.78;;;1.92;;
20531;SDS011;10424;52.102;8.084;2022-09-09T03:03:40;4.18;;;2.08;;
20531;SDS011;10424;52.102;8.084;2022-09-09T03:06:09;5.15;;;2.17;;
20531;SDS011;10424;52.102;8.084;2022-09-09T03:08:37;6.60;;;2.22;;
20531;SDS011;10424;52.102;8.084;2022-09-09T03:11:05;4.43;;;2.10;;
20531;SDS011;10424;52.102;8.084;2022-09-09T03:13:32;3.83;;;2.30;;
20531;SDS011;10424;52.102;8.084;2022-09-09T03:15:59;4.80;;;2.40;;
20531;SDS011;10424;52.102;8.084;2022-09-09T03:18:29;3.03;;;2.17;;
20531;SDS011;10424;52.102;8.084;2022-09-09T03:20:58;3.67;;;2.13;;
20531;SDS011;10424;52.102;8.084;2022-09-09T03:23:25;2.20;;;1.90;;
20531;SDS011;10424;52.102;8.084;2022-09-09T03:25:53;2.65;;;2.13;;
20531;SDS011;10424;52.102;8.084;2022-09-09T03:28:22;3.47;;;2.10;;
20531;SDS011;10424;52.102;8.084;2022-09-09T03:30:57;5.43;;;2.40;;
20531;SDS011;10424;52.102;8.084;2022-09-09T03:33:24;3.75;;;2.42;;
20531;SDS011;10424;52.102;8.084;2022-09-09T03:35:52;4.22;;;2.50;;
20531;SDS011;10424;52.102;8.084;2022-09-09T03:38:22;3.95;;;2.47;;
20531;SDS011;10424;52.102;8.084;2022-09-09T03:40:50;4.72;;;2.60;;
20531;SDS011;10424;52.102;8.084;2022-09-09T03:43:18;4.90;;;2.83;;
20531;SDS011;10424;52.102;8.084;2022-09-09T03:45:46;5.53;;;3.00;;
20531;SDS011;10424;52.102;8.084;2022-09-09T03:48:13;5.50;;;2.70;;
20531;SDS011;10424;52.102;8.084;2022-09-09T03:50:43;4.32;;;2.90;;
20531;SDS011;10424;52.102;8.084;2022-09-09T03:53:10;5.70;;;3.10;;
20531;SDS011;10424;52.102;8.084;2022-09-09T03:55:39;6.20;;;3.20;;
20531;SDS011;10424;52.102;8.084;2022-09-09T03:58:10;4.55;;;2.95;;
20531;SDS011;10424;52.102;8.084;2022-09-09T04:00:38;4.57;;;3.00;;
20531;SDS011;10424;52.102;8.084;2022-09-09T04:03:07;4.60;;;2.83;;
20531;SDS011;10424;52.102;8.084;2022-09-09T04:05:34;5.35;;;3.40;;
20531;SDS011;10424;52.102;8.084;2022-09-09T04:08:04;4.43;;;2.97;;
20531;SDS011;10424;52.102;8.084;2022-09-09T04:10:32;5.72;;;3.35;;
20531;SDS011;10424;52.102;8.084;2022-09-09T04:13:02;4.60;;;3.30;;
20531;SDS011;10424;52.102;8.084;2022-09-09T04:15:30;6.25;;;3.17;;
20531;SDS011;10424;52.102;8.084;2022-09-09T04:17:58;5.70;;;3.10;;
20531;SDS011;10424;52.102;8.084;2022-09-09T04:20:25;10.60;;;3.30;;
20531;SDS011;10424;52.102;8.084;2022-09-09T04:22:53;5.88;;;3.40;;
20531;SDS011;10424;52.102;8.084;2022-09-09T04:25:20;6.05;;;3.40;;
20531;SDS011;10424;52.102;8.084;2022-09-09T04:27:47;5.20;;;3.13;;
20531;SDS011;10424;52.102;8.084;2022-09-09T04:30:18;4.47;;;3.20;;
20531;SDS011;10424;52.102;8.084;2022-09-09T04:32:46;6.07;;;3.40;;
20531;SDS011;10424;52.102;8.084;2022-09-09T04:35:13;9.02;;;3.38;;
20531;SDS011;10424;52.102;8.084;2022-09-09T04:37:40;5.57;;;3.40;;
20531;SDS011;10424;52.102;8.084;2022-09-09T04:40:08;5.45;;;3.30;;
20531;SDS011;10424;52.102;8.084;2022-09-09T04:42:35;5.15;;;3.33;;
20531;SDS011;10424;52.102;8.084;2022-09-09T04:45:04;5.85;;;3.38;;
20531;SDS011;10424;52.102;8.084;2022-09-09T04:47:33;7.68;;;3.60;;
20531;SDS011;10424;52.102;8.084;2022-09-09T04:50:01;6.60;;;3.70;;
20531;SDS011;10424;52.102;8.084;2022-09-09T04:52:28;8.55;;;3.60;;
20531;SDS011;10424;52.102;8.084;2022-09-09T04:54:55;8.20;;;3.70;;
20531;SDS011;10424;52.102;8.084;2022-09-09T04:57:23;4.95;;;3.63;;
20531;SDS011;10424;52.102;8.084;2022-09-09T04:59:50;5.20;;;3.53;;
20531;SDS011;10424;52.102;8.084;2022-09-09T05:02:17;5.90;;;3.50;;
20531;SDS011;10424;52.102;8.084;2022-09-09T05:04:46;5.50;;;3.53;;
20531;SDS011;10424;52.102;8.084;2022-09-09T05:07:14;6.47;;;3.50;;
20531;SDS011;10424;52.102;8.084;2022-09-09T05:09:41;8.52;;;3.42;;
20531;SDS011;10424;52.102;8.084;2022-09-09T05:12:10;7.28;;;3.30;;
20531;SDS011;10424;52.102;8.084;2022-09-09T05:14:37;6.60;;;3.33;;
20531;SDS011;10424;52.102;8.084;2022-09-09T05:17:04;6.70;;;3.33;;
20531;SDS011;10424;52.102;8.084;2022-09-09T05:19:32;7.60;;;3.50;;
20531;SDS011;10424;52.102;8.084;2022-09-09T05:22:00;5.88;;;3.80;;
20531;SDS011;10424;52.102;8.084;2022-09-09T05:24:28;4.63;;;3.45;;
20531;SDS011;10424;52.102;8.084;2022-09-09T05:26:58;9.23;;;3.80;;
20531;SDS011;10424;52.102;8.084;2022-09-09T05:29:27;7.25;;;3.72;;
20531;SDS011;10424;52.102;8.084;2022-09-09T05:31:54;5.78;;;3.67;;
20531;SDS011;10424;52.102;8.084;2022-09-09T05:34:21;8.50;;;3.58;;
20531;SDS011;10424;52.102;8.084;2022-09-09T05:36:49;7.78;;;3.65;;
20531;SDS011;10424;52.102;8.084;2022-09-09T05:39:18;5.93;;;3.50;;
20531;SDS011;10424;52.102;8.084;2022-09-09T05:41:45;5.13;;;3.47;;
20531;SDS011;10424;52.102;8.084;2022-09-09T05:44:13;8.82;;;3.67;;
20531;SDS011;10424;52.102;8.084;2022-09-09T05:46:40;5.30;;;3.35;;
20531;SDS011;10424;52.102;8.084;2022-09-09T05:49:07;4.60;;;3.10;;
20531;SDS011;10424;52.102;8.084;2022-09-09T05:51:35;7.05;;;3.35;;
20531;SDS011;10424;52.102;8.084;2022-09-09T05:54:02;6.60;;;3.22;;
20531;SDS011;10424;52.102;8.084;2022-09-09T05:56:31;5.53;;;3.00;;
20531;SDS011;10424;52.102;8.084;2022-09-09T05:58:58;5.00;;;2.92;;
20531;SDS011;10424;52.102;8.084;2022-09-09T06:01:26;5.55;;;3.10;;
20531;SDS011;10424;52.102;8.084;2022-09-09T06:03:54;5.32;;;3.00;;
20531;SDS011;10424;52.102;8.084;2022-09-09T06:06:22;5.18;;;2.78;;
20531;SDS011;10424;52.102;8.084;2022-09-09T06:08:52;7.60;;;2.95;;
20531;SDS011;10424;52.102;8.084;2022-09-09T06:11:20;4.50;;;2.97;;
20531;SDS011;10424;52.102;8.084;2022-09-09T06:13:49;9.57;;;2.95;;
20531;SDS011;10424;52.102;8.084;2022-09-09T06:16:19;5.57;;;3.15;;
20531;SDS011;10424;52.102;8.084;2022-09-09T06:18:48;5.45;;;2.85;;
20531;SDS011;10424;52.102;8.084;2022-09-09T06:21:16;7.00;;;3.00;;
20531;SDS011;10424;52.102;8.084;2022-09-09T06:23:43;5.05;;;2.80;;
20531;SDS011;10424;52.102;8.084;2022-09-09T06:26:11;5.60;;;2.90;;
20531;SDS011;10424;52.102;8.084;2022-09-09T06:28:39;7.93;;;3.03;;
20531;SDS011;10424;52.102;8.084;2022-09-09T06:31:10;7.35;;;2.92;;
20531;SDS011;10424;52.102;8.084;2022-09-09T06:33:38;4.50;;;2.65;;
20531;SDS011;10424;52.102;8.084;2022-09-09T06:36:06;7.53;;;2.72;;
20531;SDS011;10424;52.102;8.084;2022-09-09T06:38:34;3.92;;;2.70;;
20531;SDS011;10424;52.102;8.084;2022-09-09T06:41:01;6.53;;;2.75;;
20531;SDS011;10424;52.102;8.084;2022-09-09T06:43:28;5.20;;;2.58;;
20531;SDS011;10424;52.102;8.084;2022-09-09T06:45:56;6.30;;;2.67;;
20531;SDS011;10424;52.102;8.084;2022-09-09T06:48:25;4.97;;;2.42;;
20531;SDS011;10424;52.102;8.084;2022-09-09T06:50:59;4.88;;;2.67;;
20531;SDS011;10424;52.102;8.084;2022-09-09T06:53:27;5.78;;;2.40;;
20531;SDS011;10424;52.102;8.084;2022-09-09T06:55:55;5.82;;;2.53;;
20531;SDS011;10424;52.102;8.084;2022-09-09T06:58:22;4.75;;;2.50;;
20531;SDS011;10424;52.102;8.084;2022-09-09T07:00:49;6.63;;;2.50;;
20531;SDS011;10424;52.102;8.084;2022-09-09T07:03:16;5.28;;;2.40;;
20531;SDS011;10424;52.102;8.084;2022-09-09T07:05:54;5.82;;;2.47;;
20531;SDS011;10424;52.102;8.084;2022-09-09T07:08:22;6.00;;;2.15;;
20531;SDS011;10424;52.102;8.084;2022-09-09T07:10:49;5.85;;;2.40;;
20531;SDS011;10424;52.102;8.084;2022-09-09T07:13:19;3.45;;;2.00;;
20531;SDS011;10424;52.102;8.084;2022-09-09T07:15:49;3.53;;;2.20;;
20531;SDS011;10424;52.102;8.084;2022-09-09T07:18:16;5.22;;;2.40;;
20531;SDS011;10424;52.102;8.084;2022-09-09T07:20:52;7.38;;;2.13;;
20531;SDS011;10424;52.102;8.084;2022-09-09T07:23:21;7.35;;;2.03;;
20531;SDS011;10424;52.102;8.084;2022-09-09T07:25:48;5.07;;;2.15;;
20531;SDS011;10424;52.102;8.084;2022-09-09T07:28:16;5.57;;;2.03;;
20531;SDS011;10424;52.102;8.084;2022-09-09T07:30:45;6.88;;;2.20;;
20531;SDS011;10424;52.102;8.084;2022-09-09T07:33:19;5.90;;;2.10;;
20531;SDS011;10424;52.102;8.084;2022-09-09T07:35:46;6.72;;;2.20;;
20531;SDS011;10424;52.102;8.084;2022-09-09T07:38:14;5.57;;;2.30;;
20531;SDS011;10424;52.102;8.084;2022-09-09T07:40:43;5.32;;;2.00;;
20531;SDS011;10424;52.102;8.084;2022-09-09T07:43:10;5.20;;;1.90;;
20531;SDS011;10424;52.102;8.084;2022-09-09T07:45:37;6.78;;;2.10;;
20531;SDS011;10424;52.102;8.084;2022-09-09T07:48:05;7.78;;;2.20;;
20531;SDS011;10424;52.102;8.084;2022-09-09T07:50:33;5.53;;;1.98;;
20531;SDS011;10424;52.102;8.084;2022-09-09T07:53:00;4.78;;;2.10;;
20531;SDS011;10424;52.102;8.084;2022-09-09T07:55:30;4.85;;;1.70;;
20531;SDS011;10424;52.102;8.084;2022-09-09T07:57:58;5.38;;;1.55;;
20531;SDS011;10424;52.102;8.084;2022-09-09T08:00:26;6.00;;;1.70;;
20531;SDS011;10424;52.102;8.084;2022-09-09T08:02:53;5.38;;;1.40;;
20531;SDS011;10424;52.102;8.084;2022-09-09T08:05:21;3.75;;;1.33;;
20531;SDS011;10424;52.102;8.084;2022-09-09T08:07:48;3.25;;;1.20;;
20531;SDS011;10424;52.102;8.084;2022-09-09T08:10:16;3.63;;;1.20;;
20531;SDS011;10424;52.102;8.084;2022-09-09T08:12:43;5.45;;;1.38;;
20531;SDS011;10424;52.102;8.084;2022-09-09T08:15:12;6.35;;;1.50;;
20531;SDS011;10424;52.102;8.084;2022-09-09T08:17:39;3.88;;;1.45;;
20531;SDS011;10424;52.102;8.084;2022-09-09T08:20:08;8.48;;;1.60;;
20531;SDS011;10424;52.102;8.084;2022-09-09T08:22:36;6.70;;;1.40;;
20531;SDS011;10424;52.102;8.084;2022-09-09T08:25:04;4.40;;;1.50;;
20531;SDS011;10424;52.102;8.084;2022-09-09T08:27:33;5.38;;;1.40;;
20531;SDS011;10424;52.102;8.084;2022-09-09T08:30:02;6.95;;;1.73;;
20531;SDS011;10424;52.102;8.084;2022-09-09T08:32:31;5.85;;;1.35;;
20531;SDS011;10424;52.102;8.084;2022-09-09T08:35:00;6.18;;;1.75;;
20531;SDS011;10424;52.102;8.084;2022-09-09T08:37:27;4.30;;;1.50;;
20531;SDS011;10424;52.102;8.084;2022-09-09T08:39:54;7.72;;;1.55;;
20531;SDS011;10424;52.102;8.084;2022-09-09T08:42:30;6.47;;;1.70;;
20531;SDS011;10424;52.102;8.084;2022-09-09T08:45:09;7.22;;;1.77;;
20531;SDS011;10424;52.102;8.084;2022-09-09T08:47:42;7.32;;;1.63;;
20531;SDS011;10424;52.102;8.084;2022-09-09T08:50:19;7.13;;;1.77;;
20531;SDS011;10424;52.102;8.084;2022-09-09T08:52:51;5.13;;;1.65;;
20531;SDS011;10424;52.102;8.084;2022-09-09T08:55:21;7.28;;;1.80;;
20531;SDS011;10424;52.102;8.084;2022-09-09T08:57:49;5.72;;;1.80;;
20531;SDS011;10424;52.102;8.084;2022-09-09T09:00:18;4.53;;;1.60;;
20531;SDS011;10424;52.102;8.084;2022-09-09T09:02:48;6.45;;;1.90;;
20531;SDS011;10424;52.102;8.084;2022-09-09T09:05:22;7.68;;;1.85;;
20531;SDS011;10424;52.102;8.084;2022-09-09T09:07:56;3.85;;;1.60;;
20531;SDS011;10424;52.102;8.084;2022-09-09T09:10:30;4.93;;;1.48;;
20531;SDS011;10424;52.102;8.084;2022-09-09T09:13:01;4.63;;;1.55;;
20531;SDS011;10424;52.102;8.084;2022-09-09T09:15:30;5.05;;;1.52;;
20531;SDS011;10424;52.102;8.084;2022-09-09T09:18:03;5.03;;;1.60;;
20531;SDS011;10424;52.102;8.084;2022-09-09T09:20:32;7.30;;;1.73;;
20531;SDS011;10424;52.102;8.084;2022-09-09T09:23:01;4.50;;;1.65;;
20531;SDS011;10424;52.102;8.084;2022-09-09T09:25:31;5.38;;;1.73;;
20531;SDS011;10424;52.102;8.084;2022-09-09T09:28:02;5.93;;;1.75;;
20531;SDS011;10424;52.102;8.084;2022-09-09T09:30:31;7.03;;;1.45;;
20531;SDS011;10424;52.102;8.084;2022-09-09T09:33:05;4.70;;;1.60;;
20531;SDS011;10424;52.102;8.084;2022-09-09T09:35:35;6.03;;;1.63;;
20531;SDS011;10424;52.102;8.084;2022-09-09T09:38:05;5.35;;;2.00;;
20531;SDS011;10424;52.102;8.084;2022-09-09T09:40:36;5.97;;;2.10;;
20531;SDS011;10424;52.102;8.084;2022-09-09T09:43:03;5.65;;;2.58;;
20531;SDS011;10424;52.102;8.084;2022-09-09T09:45:34;8.05;;;3.10;;
20531;SDS011;10424;52.102;8.084;2022-09-09T09:48:04;3.92;;;1.90;;
20531;SDS011;10424;52.102;8.084;2022-09-09T09:50:32;5.95;;;2.40;;
20531;SDS011;10424;52.102;8.084;2022-09-09T09:53:00;4.78;;;1.95;;
20531;SDS011;10424;52.102;8.084;2022-09-09T09:55:29;4.85;;;2.00;;
20531;SDS011;10424;52.102;8.084;2022-09-09T09:58:01;6.00;;;2.10;;
20531;SDS011;10424;52.102;8.084;2022-09-09T10:00:29;5.05;;;1.73;;
20531;SDS011;10424;52.102;8.084;2022-09-09T10:02:56;5.30;;;1.63;;
20531;SDS011;10424;52.102;8.084;2022-09-09T10:05:25;5.68;;;1.63;;
20531;SDS011;10424;52.102;8.084;2022-09-09T10:08:00;6.20;;;1.83;;
20531;SDS011;10424;52.102;8.084;2022-09-09T10:10:31;4.75;;;1.60;;
20531;SDS011;10424;52.102;8.084;2022-09-09T10:13:02;4.05;;;1.50;;
20531;SDS011;10424;52.102;8.084;2022-09-09T10:15:32;5.72;;;1.77;;
20531;SDS011;10424;52.102;8.084;2022-09-09T10:18:06;6.97;;;1.60;;
20531;SDS011;10424;52.102;8.084;2022-09-09T10:20:38;5.53;;;1.60;;
20531;SDS011;10424;52.102;8.084;2022-09-09T10:23:12;5.03;;;1.42;;
20531;SDS011;10424;52.102;8.084;2022-09-09T10:25:54;3.35;;;1.40;;
20531;SDS011;10424;52.102;8.084;2022-09-09T10:28:38;3.40;;;1.30;;
20531;SDS011;10424;52.102;8.084;2022-09-09T10:31:11;3.90;;;1.55;;
20531;SDS011;10424;52.102;8.084;2022-09-09T10:33:43;3.78;;;1.30;;
20531;SDS011;10424;52.102;8.084;2022-09-09T10:36:15;6.28;;;1.48;;
20531;SDS011;10424;52.102;8.084;2022-09-09T10:38:45;5.47;;;1.30;;
20531;SDS011;10424;52.102;8.084;2022-09-09T10:41:18;7.25;;;1.23;;
20531;SDS011;10424;52.102;8.084;2022-09-09T10:43:50;3.72;;;1.15;;
20531;SDS011;10424;52.102;8.084;2022-09-09T10:46:23;5.05;;;1.42;;
20531;SDS011;10424;52.102;8.084;2022-09-09T10:48:58;4.82;;;1.60;;
20531;SDS011;10424;52.102;8.084;2022-09-09T10:51:33;6.95;;;1.70;;
20531;SDS011;10424;52.102;8.084;2022-09-09T10:56:49;5.75;;;1.98;;
20531;SDS011;10424;52.102;8.084;2022-09-09T10:59:20;6.13;;;1.60;;
20531;SDS011;10424;52.102;8.084;2022-09-09T11:01:51;3.75;;;1.42;;
20531;SDS011;10424;52.102;8.084;2022-09-09T11:04:21;1.98;;;1.42;;
20531;SDS011;10424;52.102;8.084;2022-09-09T11:06:50;4.60;;;1.90;;
20531;SDS011;10424;52.102;8.084;2022-09-09T11:09:21;5.45;;;1.60;;
20531;SDS011;10424;52.102;8.084;2022-09-09T11:11:51;3.13;;;1.73;;
20531;SDS011;10424;52.102;8.084;2022-09-09T11:14:20;5.80;;;1.80;;
20531;SDS011;10424;52.102;8.084;2022-09-09T11:16:49;3.72;;;2.00;;
20531;SDS011;10424;52.102;8.084;2022-09-09T11:19:19;3.53;;;1.63;;
20531;SDS011;10424;52.102;8.084;2022-09-09T11:21:50;4.20;;;1.80;;
20531;SDS011;10424;52.102;8.084;2022-09-09T11:24:20;6.05;;;1.70;;
20531;SDS011;10424;52.102;8.084;2022-09-09T11:26:51;4.97;;;1.58;;
20531;SDS011;10424;52.102;8.084;2022-09-09T11:29:32;5.18;;;1.80;;
20531;SDS011;10424;52.102;8.084;2022-09-09T11:32:07;3.83;;;1.40;;
20531;SDS011;10424;52.102;8.084;2022-09-09T11:34:40;4.47;;;1.80;;
20531;SDS011;10424;52.102;8.084;2022-09-09T11:37:21;4.40;;;1.80;;
20531;SDS011;10424;52.102;8.084;2022-09-09T11:40:00;4.40;;;1.60;;
20531;SDS011;10424;52.102;8.084;2022-09-09T11:42:31;3.97;;;1.58;;
20531;SDS011;10424;52.102;8.084;2022-09-09T11:45:07;6.95;;;1.90;;
20531;SDS011;10424;52.102;8.084;2022-09-09T11:47:36;4.95;;;1.90;;
20531;SDS011;10424;52.102;8.084;2022-09-09T11:50:07;4.28;;;1.63;;
20531;SDS011;10424;52.102;8.084;2022-09-09T11:52:39;5.90;;;2.20;;
20531;SDS011;10424;52.102;8.084;2022-09-09T11:55:11;5.90;;;2.05;;
20531;SDS011;10424;52.102;8.084;2022-09-09T11:57:38;4.53;;;2.00;;
20531;SDS011;10424;52.102;8.084;2022-09-09T12:00:06;4.57;;;1.77;;
20531;SDS011;10424;52.102;8.084;2022-09-09T12:02:34;4.32;;;2.08;;
20531;SDS011;10424;52.102;8.084;2022-09-09T12:05:02;4.57;;;2.00;;
20531;SDS011;10424;52.102;8.084;2022-09-09T12:07:32;3.30;;;2.00;;
20531;SDS011;10424;52.102;8.084;2022-09-09T12:10:03;5.03;;;2.15;;
20531;SDS011;10424;52.102;8.084;2022-09-09T12:12:32;6.07;;;2.10;;
20531;SDS011;10424;52.102;8.084;2022-09-09T12:15:01;4.53;;;2.00;;
20531;SDS011;10424;52.102;8.084;2022-09-09T12:17:29;4.50;;;1.88;;
20531;SDS011;10424;52.102;8.084;2022-09-09T12:20:08;3.80;;;1.70;;
20531;SDS011;10424;52.102;8.084;2022-09-09T12:22:41;3.85;;;1.10;;
20531;SDS011;10424;52.102;8.084;2022-09-09T12:25:16;3.92;;;1.00;;
20531;SDS011;10424;52.102;8.084;2022-09-09T12:27:48;6.10;;;1.30;;
20531;SDS011;10424;52.102;8.084;2022-09-09T12:30:22;3.08;;;1.05;;
20531;SDS011;10424;52.102;8.084;2022-09-09T12:32:58;2.22;;;1.42;;
20531;SDS011;10424;52.102;8.084;2022-09-09T12:35:26;5.05;;;2.22;;
20531;SDS011;10424;52.102;8.084;2022-09-09T12:37:55;5.57;;;2.35;;
20531;SDS011;10424;52.102;8.084;2022-09-09T12:40:26;3.13;;;1.73;;
20531;SDS011;10424;52.102;8.084;2022-09-09T12:42:53;4.88;;;2.40;;
20531;SDS011;10424;52.102;8.084;2022-09-09T12:45:21;6.20;;;2.40;;
20531;SDS011;10424;52.102;8.084;2022-09-09T12:47:50;4.50;;;1.98;;
20531;SDS011;10424;52.102;8.084;2022-09-09T12:50:20;3.25;;;1.90;;
20531;SDS011;10424;52.102;8.084;2022-09-09T12:52:48;4.22;;;2.17;;
20531;SDS011;10424;52.102;8.084;2022-09-09T12:55:19;3.55;;;1.83;;
20531;SDS011;10424;52.102;8.084;2022-09-09T12:57:51;7.35;;;1.83;;
20531;SDS011;10424;52.102;8.084;2022-09-09T13:00:19;4.72;;;1.23;;
20531;SDS011;10424;52.102;8.084;2022-09-09T13:02:49;2.90;;;1.70;;
20531;SDS011;10424;52.102;8.084;2022-09-09T13:05:17;4.45;;;1.88;;
20531;SDS011;10424;52.102;8.084;2022-09-09T13:07:45;3.42;;;1.70;;
20531;SDS011;10424;52.102;8.084;2022-09-09T13:10:14;3.15;;;1.73;;
20531;SDS011;10424;52.102;8.084;2022-09-09T13:12:41;3.83;;;1.88;;
20531;SDS011;10424;52.102;8.084;2022-09-09T13:15:14;4.03;;;1.52;;
20531;SDS011;10424;52.102;8.084;2022-09-09T13:17:49;5.90;;;1.40;;
20531;SDS011;10424;52.102;8.084;2022-09-09T13:20:17;3.35;;;1.45;;
20531;SDS011;10424;52.102;8.084;2022-09-09T13:22:45;4.55;;;1.50;;
20531;SDS011;10424;52.102;8.084;2022-09-09T13:25:19;4.32;;;1.40;;
20531;SDS011;10424;52.102;8.084;2022-09-09T13:27:51;4.18;;;1.30;;
20531;SDS011;10424;52.102;8.084;2022-09-09T13:30:21;2.22;;;1.30;;
20531;SDS011;10424;52.102;8.084;2022-09-09T13:32:59;3.17;;;1.50;;
20531;SDS011;10424;52.102;8.084;2022-09-09T13:35:27;4.13;;;1.40;;
20531;SDS011;10424;52.102;8.084;2022-09-09T13:37:55;3.15;;;1.50;;
20531;SDS011;10424;52.102;8.084;2022-09-09T13:40:22;4.72;;;1.30;;
20531;SDS011;10424;52.102;8.084;2022-09-09T13:42:51;2.97;;;1.40;;
20531;SDS011;10424;52.102;8.084;2022-09-09T13:45:19;3.90;;;1.27;;
20531;SDS011;10424;52.102;8.084;2022-09-09T13:47:48;2.65;;;1.30;;
20531;SDS011;10424;52.102;8.084;2022-09-09T13:50:21;3.33;;;1.30;;
20531;SDS011;10424;52.102;8.084;2022-09-09T13:52:48;4.88;;;2.42;;
20531;SDS011;10424;52.102;8.084;2022-09-09T13:55:16;2.95;;;1.20;;
20531;SDS011;10424;52.102;8.084;2022-09-09T13:57:50;7.00;;;1.40;;
20531;SDS011;10424;52.102;8.084;2022-09-09T14:00:17;2.90;;;1.30;;
20531;SDS011;10424;52.102;8.084;2022-09-09T14:02:45;1.48;;;1.05;;
20531;SDS011;10424;52.102;8.084;2022-09-09T14:05:14;3.28;;;1.27;;
20531;SDS011;10424;52.102;8.084;2022-09-09T14:07:42;3.63;;;1.20;;
20531;SDS011;10424;52.102;8.084;2022-09-09T14:10:10;3.92;;;1.13;;
20531;SDS011;10424;52.102;8.084;2022-09-09T14:12:37;2.90;;;1.30;;
20531;SDS011;10424;52.102;8.084;2022-09-09T14:15:05;7.32;;;1.38;;
20531;SDS011;10424;52.102;8.084;2022-09-09T14:17:33;4.85;;;1.20;;
20531;SDS011;10424;52.102;8.084;2022-09-09T14:20:01;3.88;;;1.20;;
20531;SDS011;10424;52.102;8.084;2022-09-09T14:22:32;2.95;;;1.10;;
20531;SDS011;10424;52.102;8.084;2022-09-09T14:24:59;2.60;;;1.00;;
20531;SDS011;10424;52.102;8.084;2022-09-09T14:27:26;4.60;;;1.00;;
20531;SDS011;10424;52.102;8.084;2022-09-09T14:29:55;3.78;;;1.05;;
20531;SDS011;10424;52.102;8.084;2022-09-09T14:32:22;3.50;;;0.93;;
20531;SDS011;10424;52.102;8.084;2022-09-09T14:34:50;1.73;;;0.70;;
20531;SDS011;10424;52.102;8.084;2022-09-09T14:37:17;2.17;;;0.90;;
20531;SDS011;10424;52.102;8.084;2022-09-09T14:39:47;2.90;;;1.10;;
20531;SDS011;10424;52.102;8.084;2022-09-09T14:42:15;1.58;;;0.73;;
20531;SDS011;10424;52.102;8.084;2022-09-09T14:44:43;1.85;;;0.80;;
20531;SDS011;10424;52.102;8.084;2022-09-09T14:47:11;4.68;;;0.80;;
20531;SDS011;10424;52.102;8.084;2022-09-09T14:49:38;2.25;;;0.85;;
20531;SDS011;10424;52.102;8.084;2022-09-09T14:52:06;3.55;;;0.80;;
20531;SDS011;10424;52.102;8.084;2022-09-09T14:54:34;2.33;;;0.80;;
20531;SDS011;10424;52.102;8.084;2022-09-09T14:57:03;2.25;;;0.80;;
20531;SDS011;10424;52.102;8.084;2022-09-09T14:59:30;1.83;;;1.00;;
20531;SDS011;10424;52.102;8.084;2022-09-09T15:01:57;2.97;;;1.00;;
20531;SDS011;10424;52.102;8.084;2022-09-09T15:04:29;2.10;;;0.93;;